createdAt,value
2023-10-09T00:00:25.735Z,20.20
2023-10-09T00:01:25.790Z,20.22
2023-10-09T00:02:25.750Z,20.22
2023-10-09T00:03:25.795Z,20.20
2023-10-09T00:04:25.785Z,20.20
2023-10-09T00:05:25.716Z,20.22
2023-10-09T00:06:25.868Z,20.20
2023-10-09T00:07:25.714Z,20.20
2023-10-09T00:08:25.730Z,20.19
2023-10-09T00:09:25.811Z,20.20
2023-10-09T00:10:25.755Z,20.19
2023-10-09T00:11:25.787Z,20.19
2023-10-09T00:12:25.843Z,20.20
2023-10-09T00:13:25.824Z,20.19
2023-10-09T00:15:25.915Z,20.20
2023-10-09T00:16:25.896Z,20.20
2023-10-09T00:17:25.871Z,20.20
2023-10-09T00:18:25.936Z,20.20
2023-10-09T00:19:25.872Z,20.20
2023-10-09T00:20:25.886Z,20.20
2023-10-09T00:21:25.925Z,20.20
2023-10-09T00:22:25.898Z,20.20
2023-10-09T00:23:25.902Z,20.19
2023-10-09T00:24:26.081Z,20.19
2023-10-09T00:25:25.956Z,20.20
2023-10-09T00:26:25.966Z,20.17
2023-10-09T00:27:26.024Z,20.20
2023-10-09T00:28:26.026Z,20.19
2023-10-09T00:29:26.030Z,20.17
2023-10-09T00:30:26.077Z,20.19
2023-10-09T00:31:26.079Z,20.19
2023-10-09T00:32:26.060Z,20.19
2023-10-09T00:33:26.229Z,20.20
2023-10-09T00:34:26.065Z,20.19
2023-10-09T00:35:26.096Z,20.19
2023-10-09T00:36:26.151Z,20.17
2023-10-09T00:37:26.113Z,20.16
2023-10-09T00:38:26.107Z,20.17
2023-10-09T00:39:26.145Z,20.17
2023-10-09T00:40:26.113Z,20.19
2023-10-09T00:41:27.253Z,20.19
2023-10-09T00:42:26.153Z,20.19
2023-10-09T00:43:26.124Z,20.17
2023-10-09T00:44:26.131Z,20.19
2023-10-09T00:45:26.210Z,20.17
2023-10-09T00:46:26.337Z,20.19
2023-10-09T00:47:26.200Z,20.20
2023-10-09T00:48:26.223Z,20.20
2023-10-09T00:49:26.174Z,20.19
2023-10-09T00:50:26.183Z,20.19
2023-10-09T00:51:26.214Z,20.19
2023-10-09T00:52:26.204Z,20.19
2023-10-09T00:53:26.214Z,20.20
2023-10-09T00:54:26.233Z,20.19
2023-10-09T00:55:26.215Z,20.22
2023-10-09T00:56:26.228Z,20.19
2023-10-09T00:57:26.243Z,20.19
2023-10-09T00:58:26.234Z,20.20
2023-10-09T00:59:26.238Z,20.19
2023-10-09T01:00:26.309Z,20.19
2023-10-09T01:01:26.297Z,20.19
2023-10-09T01:02:26.334Z,20.19
2023-10-09T01:03:26.351Z,20.17
2023-10-09T01:04:26.553Z,20.19
2023-10-09T01:05:26.277Z,20.17
2023-10-09T01:06:26.331Z,20.17
2023-10-09T01:07:26.304Z,20.16
2023-10-09T01:08:26.337Z,20.19
2023-10-09T01:09:26.351Z,20.17
2023-10-09T01:10:26.322Z,20.17
2023-10-09T01:11:26.333Z,20.17
2023-10-09T01:12:26.350Z,20.19
2023-10-09T01:13:26.399Z,20.17
2023-10-09T01:14:26.360Z,20.19
2023-10-09T01:15:26.378Z,20.17
2023-10-09T01:16:26.408Z,20.17
2023-10-09T01:17:26.414Z,20.17
2023-10-09T01:18:26.407Z,20.16
2023-10-09T01:19:26.417Z,20.17
2023-10-09T01:20:26.395Z,20.15
2023-10-09T01:21:26.545Z,20.16
2023-10-09T01:22:26.416Z,20.16
2023-10-09T01:24:26.496Z,20.16
2023-10-09T01:25:26.417Z,20.16
2023-10-09T01:26:26.421Z,20.17
2023-10-09T01:27:26.478Z,20.17
2023-10-09T01:28:26.434Z,20.17
2023-10-09T01:29:26.453Z,20.17
2023-10-09T01:30:26.481Z,20.17
2023-10-09T01:31:26.512Z,20.17
2023-10-09T01:32:26.501Z,20.16
2023-10-09T01:33:26.532Z,20.16
2023-10-09T01:34:26.533Z,20.15
2023-10-09T01:35:26.537Z,20.16
2023-10-09T01:36:26.528Z,20.16
2023-10-09T01:37:26.501Z,20.15
2023-10-09T01:38:26.518Z,20.15
2023-10-09T01:39:26.561Z,20.15
2023-10-09T01:40:26.530Z,20.15
2023-10-09T01:41:26.538Z,20.15
2023-10-09T01:42:26.614Z,20.15
2023-10-09T01:43:26.557Z,20.17
2023-10-09T01:44:26.573Z,20.16
2023-10-09T01:45:26.652Z,20.16
2023-10-09T01:46:26.616Z,20.16
2023-10-09T01:47:26.625Z,20.13
2023-10-09T01:48:26.638Z,20.13
2023-10-09T01:50:26.644Z,20.15
2023-10-09T01:51:26.816Z,20.15
2023-10-09T01:52:26.696Z,20.16
2023-10-09T01:53:26.692Z,20.13
2023-10-09T01:54:26.752Z,20.13
2023-10-09T01:55:26.721Z,20.15
2023-10-09T01:56:26.730Z,20.13
2023-10-09T01:57:26.783Z,20.13
2023-10-09T01:58:26.769Z,20.13
2023-10-09T01:59:26.764Z,20.12
2023-10-09T02:00:26.818Z,20.13
2023-10-09T02:01:26.810Z,20.13
2023-10-09T02:02:27.186Z,20.13
2023-10-09T02:03:26.888Z,20.13
2023-10-09T02:04:26.819Z,20.13
2023-10-09T02:05:26.812Z,20.16
2023-10-09T02:06:26.896Z,20.13
2023-10-09T02:07:26.841Z,20.12
2023-10-09T02:08:26.823Z,20.12
2023-10-09T02:09:26.855Z,20.12
2023-10-09T02:10:26.959Z,20.12
2023-10-09T02:11:26.871Z,20.12
2023-10-09T02:12:26.886Z,20.12
2023-10-09T02:13:26.863Z,20.12
2023-10-09T02:14:26.867Z,20.12
2023-10-09T02:15:26.897Z,20.12
2023-10-09T02:16:26.915Z,20.10
2023-10-09T02:17:26.935Z,20.13
2023-10-09T02:18:27.018Z,20.12
2023-10-09T02:19:26.932Z,20.10
2023-10-09T02:20:26.930Z,20.12
2023-10-09T02:21:26.969Z,20.10
2023-10-09T02:22:26.942Z,20.10
2023-10-09T02:23:26.972Z,20.10
2023-10-09T02:24:26.983Z,20.10
2023-10-09T02:25:26.969Z,20.10
2023-10-09T02:26:27.528Z,20.08
2023-10-09T02:27:26.984Z,20.08
2023-10-09T02:28:26.975Z,20.10
2023-10-09T02:29:26.974Z,20.08
2023-10-09T02:30:27.005Z,20.08
2023-10-09T02:31:27.019Z,20.08
2023-10-09T02:32:27.116Z,20.08
2023-10-09T02:33:27.048Z,20.07
2023-10-09T02:34:27.010Z,20.07
2023-10-09T02:35:27.008Z,20.05
2023-10-09T02:36:27.070Z,20.07
2023-10-09T02:37:27.008Z,20.07
2023-10-09T02:38:27.015Z,20.07
2023-10-09T02:39:27.085Z,20.07
2023-10-09T02:40:27.028Z,20.07
2023-10-09T02:41:27.048Z,20.05
2023-10-09T02:42:27.123Z,20.05
2023-10-09T02:43:27.054Z,20.08
2023-10-09T02:44:27.097Z,20.07
2023-10-09T02:45:27.084Z,20.07
2023-10-09T02:46:27.150Z,20.04
2023-10-09T02:47:27.107Z,20.02
2023-10-09T02:48:27.103Z,20.02
2023-10-09T02:49:27.094Z,20.02
2023-10-09T02:50:27.125Z,20.02
2023-10-09T02:51:27.186Z,20.04
2023-10-09T02:52:27.135Z,20.04
2023-10-09T02:53:27.130Z,20.05
2023-10-09T02:54:27.161Z,20.02
2023-10-09T02:55:27.180Z,20.04
2023-10-09T02:56:29.310Z,20.02
2023-10-09T02:57:27.183Z,20.02
2023-10-09T02:58:27.172Z,20.01
2023-10-09T02:59:27.172Z,20.01
2023-10-09T03:00:27.262Z,20.01
2023-10-09T03:01:27.215Z,20.02
2023-10-09T03:02:27.186Z,20.01
2023-10-09T03:03:27.316Z,20.02
2023-10-09T03:04:27.277Z,20.00
2023-10-09T03:05:27.228Z,20.00
2023-10-09T03:06:27.266Z,19.98
2023-10-09T03:07:27.261Z,20.00
2023-10-09T03:08:27.263Z,20.01
2023-10-09T03:09:27.421Z,20.00
2023-10-09T03:10:27.304Z,20.00
2023-10-09T03:11:27.278Z,20.00
2023-10-09T03:12:27.293Z,19.98
2023-10-09T03:13:27.252Z,19.98
2023-10-09T03:14:27.276Z,19.97
2023-10-09T03:15:27.322Z,19.98
2023-10-09T03:16:27.294Z,19.95
2023-10-09T03:17:27.305Z,19.95
2023-10-09T03:18:27.345Z,19.97
2023-10-09T03:19:27.302Z,19.98
2023-10-09T03:20:27.302Z,19.97
2023-10-09T03:21:27.470Z,19.97
2023-10-09T03:22:27.306Z,19.97
2023-10-09T03:23:27.328Z,19.98
2023-10-09T03:24:27.346Z,19.95
2023-10-09T03:25:27.350Z,19.94
2023-10-09T03:26:27.348Z,19.95
2023-10-09T03:27:27.396Z,19.94
2023-10-09T03:28:27.361Z,19.92
2023-10-09T03:29:27.390Z,19.94
2023-10-09T03:30:27.426Z,19.94
2023-10-09T03:31:27.422Z,19.95
2023-10-09T03:32:27.510Z,19.95
2023-10-09T03:33:27.456Z,19.95
2023-10-09T03:34:27.437Z,19.92
2023-10-09T03:35:27.623Z,19.94
2023-10-09T03:36:27.473Z,19.92
2023-10-09T03:37:27.458Z,19.94
2023-10-09T03:38:27.459Z,19.90
2023-10-09T03:39:27.478Z,19.94
2023-10-09T03:40:27.462Z,19.92
2023-10-09T03:41:27.475Z,19.92
2023-10-09T03:42:27.546Z,19.90
2023-10-09T03:43:27.534Z,19.89
2023-10-09T03:44:27.510Z,19.92
2023-10-09T03:45:27.561Z,19.90
2023-10-09T03:46:27.518Z,19.90
2023-10-09T03:47:27.562Z,19.90
2023-10-09T03:48:27.552Z,19.90
2023-10-09T03:49:27.530Z,19.90
2023-10-09T03:50:27.544Z,19.89
2023-10-09T03:51:27.711Z,19.87
2023-10-09T03:52:27.603Z,19.92
2023-10-09T03:53:27.574Z,19.87
2023-10-09T03:54:27.588Z,19.89
2023-10-09T03:55:27.583Z,19.89
2023-10-09T03:56:27.585Z,19.89
2023-10-09T03:57:27.682Z,19.89
2023-10-09T03:58:27.622Z,19.89
2023-10-09T03:59:27.749Z,19.89
2023-10-09T04:00:27.680Z,19.87
2023-10-09T04:01:27.649Z,19.89
2023-10-09T04:02:27.714Z,19.89
2023-10-09T04:04:27.784Z,19.86
2023-10-09T04:05:27.718Z,19.87
2023-10-09T04:06:27.753Z,19.87
2023-10-09T04:07:27.710Z,19.87
2023-10-09T04:08:27.739Z,19.89
2023-10-09T04:10:27.760Z,19.87
2023-10-09T04:11:27.769Z,19.87
2023-10-09T04:13:27.787Z,19.87
2023-10-09T04:14:27.791Z,19.86
2023-10-09T04:15:27.891Z,19.87
2023-10-09T04:16:27.833Z,19.86
2023-10-09T04:17:27.843Z,19.87
2023-10-09T04:19:27.938Z,19.87
2023-10-09T04:20:27.877Z,19.86
2023-10-09T04:21:27.965Z,19.86
2023-10-09T04:22:27.927Z,19.85
2023-10-09T04:23:27.948Z,19.86
2023-10-09T04:24:27.960Z,19.86
2023-10-09T04:25:28.067Z,19.85
2023-10-09T04:26:30.127Z,19.85
2023-10-09T04:27:28.139Z,19.85
2023-10-09T04:28:28.023Z,19.85
2023-10-09T04:29:28.600Z,19.85
2023-10-09T04:30:28.239Z,19.85
2023-10-09T04:31:28.146Z,19.82
2023-10-09T04:32:28.134Z,19.85
2023-10-09T04:33:28.180Z,19.82
2023-10-09T04:34:28.152Z,19.83
2023-10-09T04:35:28.153Z,19.85
2023-10-09T04:36:28.190Z,19.83
2023-10-09T04:37:28.166Z,19.83
2023-10-09T04:38:28.163Z,19.85
2023-10-09T04:39:28.184Z,19.85
2023-10-09T04:40:28.202Z,19.83
2023-10-09T04:41:28.204Z,19.82
2023-10-09T04:42:28.235Z,19.85
2023-10-09T04:43:28.209Z,19.83
2023-10-09T04:44:28.245Z,19.83
2023-10-09T04:45:28.265Z,19.83
2023-10-09T04:46:28.276Z,19.85
2023-10-09T04:47:28.285Z,19.83
2023-10-09T04:48:28.301Z,19.83
2023-10-09T04:49:28.246Z,19.83
2023-10-09T04:50:28.265Z,19.83
2023-10-09T04:51:28.325Z,19.83
2023-10-09T04:52:28.250Z,19.83
2023-10-09T04:53:28.256Z,19.83
2023-10-09T04:54:28.283Z,19.83
2023-10-09T04:55:28.298Z,19.83
2023-10-09T04:56:28.315Z,19.83
2023-10-09T04:57:28.439Z,19.83
2023-10-09T04:58:28.388Z,19.83
2023-10-09T04:59:28.393Z,19.83
2023-10-09T05:00:28.853Z,19.83
2023-10-09T05:01:28.423Z,19.83
2023-10-09T05:02:28.447Z,19.85
2023-10-09T05:03:28.740Z,19.83
2023-10-09T05:04:28.476Z,19.82
2023-10-09T05:05:28.437Z,19.80
2023-10-09T05:06:28.507Z,19.79
2023-10-09T05:07:28.430Z,19.76
2023-10-09T05:08:28.650Z,19.72
2023-10-09T05:09:28.478Z,19.70
2023-10-09T05:10:28.465Z,19.65
2023-10-09T05:11:28.488Z,19.61
2023-10-09T05:12:28.550Z,19.58
2023-10-09T05:13:28.520Z,19.55
2023-10-09T05:14:28.662Z,19.50
2023-10-09T05:15:28.590Z,19.50
2023-10-09T05:16:28.555Z,19.45
2023-10-09T05:17:28.579Z,19.43
2023-10-09T05:18:28.673Z,19.39
2023-10-09T05:19:28.667Z,19.39
2023-10-09T05:20:28.577Z,19.34
2023-10-09T05:21:28.642Z,19.32
2023-10-09T05:22:28.576Z,19.31
2023-10-09T05:23:28.578Z,19.27
2023-10-09T05:24:28.628Z,19.27
2023-10-09T05:25:28.602Z,19.25
2023-10-09T05:26:28.604Z,19.24
2023-10-09T05:27:28.678Z,19.23
2023-10-09T05:28:28.603Z,19.21
2023-10-09T05:29:28.619Z,19.17
2023-10-09T05:30:28.779Z,19.16
2023-10-09T05:31:28.652Z,19.16
2023-10-09T05:32:28.718Z,19.13
2023-10-09T05:33:28.687Z,19.15
2023-10-09T05:34:28.669Z,19.15
2023-10-09T05:35:28.793Z,19.15
2023-10-09T05:36:28.756Z,19.13
2023-10-09T05:37:28.668Z,19.13
2023-10-09T05:38:28.687Z,19.12
2023-10-09T05:39:28.900Z,19.10
2023-10-09T05:40:28.763Z,19.10
2023-10-09T05:41:28.694Z,19.09
2023-10-09T05:42:28.796Z,19.10
2023-10-09T05:43:28.725Z,19.10
2023-10-09T05:44:28.713Z,19.10
2023-10-09T05:45:28.764Z,19.09
2023-10-09T05:46:28.747Z,19.10
2023-10-09T05:47:28.750Z,19.10
2023-10-09T05:48:29.024Z,19.10
2023-10-09T05:49:28.740Z,19.06
2023-10-09T05:50:28.792Z,19.07
2023-10-09T05:51:28.847Z,19.07
2023-10-09T05:52:28.784Z,19.06
2023-10-09T05:53:29.083Z,19.05
2023-10-09T05:54:28.810Z,19.06
2023-10-09T05:55:28.894Z,19.06
2023-10-09T05:56:28.830Z,19.06
2023-10-09T05:57:28.855Z,19.05
2023-10-09T05:59:28.933Z,19.02
2023-10-09T06:00:28.982Z,19.02
2023-10-09T06:01:29.016Z,19.01
2023-10-09T06:02:28.991Z,18.99
2023-10-09T06:03:29.000Z,18.97
2023-10-09T06:04:29.172Z,18.97
2023-10-09T06:05:28.988Z,18.99
2023-10-09T06:06:28.992Z,19.01
2023-10-09T06:07:29.110Z,19.02
2023-10-09T06:08:29.219Z,19.06
2023-10-09T06:09:29.102Z,19.09
2023-10-09T06:12:29.098Z,19.13
2023-10-09T06:13:29.111Z,19.13
2023-10-09T06:14:29.051Z,19.10
2023-10-09T06:15:29.312Z,19.07
2023-10-09T06:16:29.090Z,19.06
2023-10-09T06:19:29.928Z,19.02
2023-10-09T06:20:29.169Z,19.02
2023-10-09T06:21:32.129Z,19.07
2023-10-09T06:22:29.199Z,19.12
2023-10-09T06:23:29.314Z,19.10
2023-10-09T06:24:29.414Z,19.10
2023-10-09T06:25:29.212Z,19.10
2023-10-09T06:26:29.237Z,19.10
2023-10-09T06:27:29.427Z,19.09
2023-10-09T06:28:29.232Z,19.07
2023-10-09T06:29:29.259Z,19.07
2023-10-09T06:30:29.584Z,19.07
2023-10-09T06:31:29.380Z,19.06
2023-10-09T06:32:29.361Z,19.06
2023-10-09T06:33:29.391Z,19.06
2023-10-09T06:34:29.383Z,19.05
2023-10-09T06:35:29.380Z,19.05
2023-10-09T06:36:29.554Z,19.07
2023-10-09T06:38:29.478Z,19.12
2023-10-09T06:39:29.572Z,19.16
2023-10-09T06:40:30.222Z,19.17
2023-10-09T06:41:31.438Z,19.24
2023-10-09T06:42:29.480Z,19.25
2023-10-09T06:43:29.455Z,19.28
2023-10-09T06:44:30.039Z,19.31
2023-10-09T06:45:29.513Z,19.34
2023-10-09T06:46:30.449Z,19.35
2023-10-09T06:47:29.493Z,19.42
2023-10-09T06:48:29.522Z,19.43
2023-10-09T06:49:29.483Z,19.45
2023-10-09T06:50:29.488Z,19.47
2023-10-09T06:52:29.693Z,19.50
2023-10-09T06:53:29.620Z,19.53
2023-10-09T06:54:29.977Z,19.60
2023-10-09T06:55:29.624Z,19.60
2023-10-09T06:56:29.540Z,19.62
2023-10-09T06:57:29.555Z,19.64
2023-10-09T06:58:29.714Z,19.65
2023-10-09T06:59:29.629Z,19.65
2023-10-09T07:00:29.902Z,19.70
2023-10-09T07:01:29.690Z,19.71
2023-10-09T07:02:29.718Z,19.71
2023-10-09T07:03:29.806Z,19.75
2023-10-09T07:04:29.796Z,19.75
2023-10-09T07:05:29.705Z,19.76
2023-10-09T07:06:29.731Z,19.78
2023-10-09T07:07:29.721Z,19.79
2023-10-09T07:08:29.807Z,19.80
2023-10-09T07:09:30.048Z,19.80
2023-10-09T07:10:29.717Z,19.82
2023-10-09T07:11:29.767Z,19.82
2023-10-09T07:12:29.779Z,19.85
2023-10-09T07:13:30.286Z,19.87
2023-10-09T07:14:29.860Z,19.87
2023-10-09T07:15:29.731Z,19.89
2023-10-09T07:16:29.867Z,19.92
2023-10-09T07:17:29.794Z,19.95
2023-10-09T07:18:30.041Z,19.95
2023-10-09T07:19:31.201Z,19.98
2023-10-09T07:21:29.805Z,20.04
2023-10-09T07:22:29.797Z,20.04
2023-10-09T07:24:30.875Z,20.07
2023-10-09T07:25:31.274Z,20.08
2023-10-09T07:26:31.121Z,20.10
2023-10-09T07:27:30.166Z,20.12
2023-10-09T07:28:30.078Z,20.13
2023-10-09T07:29:29.937Z,20.15
2023-10-09T07:30:30.051Z,20.16
2023-10-09T07:31:29.939Z,20.17
2023-10-09T07:32:29.977Z,20.17
2023-10-09T07:33:29.905Z,20.19
2023-10-09T07:34:29.896Z,20.23
2023-10-09T07:35:29.909Z,20.23
2023-10-09T07:36:30.129Z,20.25
2023-10-09T07:37:30.328Z,20.23
2023-10-09T07:38:30.352Z,20.22
2023-10-09T07:40:30.096Z,20.25
2023-10-09T07:41:30.872Z,20.25
2023-10-09T07:42:30.990Z,20.23
2023-10-09T07:43:30.151Z,20.23
2023-10-09T07:44:30.060Z,20.25
2023-10-09T07:45:30.309Z,20.23
2023-10-09T07:46:30.199Z,20.23
2023-10-09T07:48:32.385Z,20.31
2023-10-09T07:49:30.394Z,20.31
2023-10-09T07:50:30.302Z,20.30
2023-10-09T07:51:30.137Z,20.31
2023-10-09T07:52:30.113Z,20.31
2023-10-09T07:53:30.497Z,20.34
2023-10-09T07:54:30.192Z,20.35
2023-10-09T07:55:30.330Z,20.37
2023-10-09T07:56:30.436Z,20.38
2023-10-09T07:57:30.558Z,20.42
2023-10-09T07:58:30.252Z,20.50
2023-10-09T07:59:30.339Z,20.56
2023-10-09T08:00:30.403Z,20.58
2023-10-09T08:01:30.206Z,20.61
2023-10-09T08:02:30.209Z,20.63
2023-10-09T08:03:30.249Z,20.68
2023-10-09T08:04:30.501Z,20.71
2023-10-09T08:05:30.279Z,20.73
2023-10-09T08:06:30.873Z,20.76
2023-10-09T08:08:06.158Z,20.76
2023-10-09T08:08:38.188Z,20.78
2023-10-09T08:09:30.579Z,20.79
2023-10-09T08:10:30.354Z,20.79
2023-10-09T08:11:30.439Z,20.79
2023-10-09T08:12:30.996Z,20.82
2023-10-09T08:13:30.370Z,20.81
2023-10-09T08:14:30.353Z,20.79
2023-10-09T08:15:30.700Z,20.75
2023-10-09T08:16:30.304Z,20.71
2023-10-09T08:17:30.420Z,20.68
2023-10-09T08:18:30.553Z,20.68
2023-10-09T08:19:30.426Z,20.69
2023-10-09T08:20:31.042Z,20.69
2023-10-09T08:21:30.665Z,20.71
2023-10-09T08:22:30.420Z,20.72
2023-10-09T08:23:30.912Z,20.72
2023-10-09T08:24:31.025Z,20.69
2023-10-09T08:25:30.445Z,20.69
2023-10-09T08:26:30.515Z,20.66
2023-10-09T08:28:30.474Z,20.63
2023-10-09T08:29:30.682Z,20.63
2023-10-09T08:30:30.667Z,20.63
2023-10-09T08:31:30.433Z,20.63
2023-10-09T08:36:33.430Z,20.66
2023-10-09T08:37:30.608Z,20.63
2023-10-09T08:38:30.619Z,20.61
2023-10-09T08:39:30.537Z,20.60
2023-10-09T08:40:30.572Z,20.58
2023-10-09T08:41:30.870Z,20.57
2023-10-09T08:42:31.383Z,20.58
2023-10-09T08:43:30.628Z,20.60
2023-10-09T08:44:30.618Z,20.61
2023-10-09T08:45:30.616Z,20.64
2023-10-09T08:46:30.698Z,20.69
2023-10-09T08:47:30.681Z,20.73
2023-10-09T08:48:30.616Z,20.78
2023-10-09T08:49:30.787Z,20.83
2023-10-09T08:50:30.624Z,20.93
2023-10-09T08:51:30.712Z,20.96
2023-10-09T08:52:30.620Z,20.98
2023-10-09T08:53:30.718Z,21.01
2023-10-09T08:54:30.644Z,21.01
2023-10-09T08:55:30.766Z,21.01
2023-10-09T08:56:30.669Z,21.00
2023-10-09T08:57:30.673Z,20.96
2023-10-09T08:58:30.761Z,20.93
2023-10-09T08:59:30.680Z,20.91
2023-10-09T09:00:30.913Z,20.93
2023-10-09T09:01:31.005Z,20.93
2023-10-09T09:02:31.099Z,20.94
2023-10-09T09:03:31.418Z,20.94
2023-10-09T09:04:30.728Z,20.96
2023-10-09T09:05:30.802Z,20.97
2023-10-09T09:06:30.741Z,20.97
2023-10-09T09:07:30.886Z,20.94
2023-10-09T09:08:31.975Z,20.96
2023-10-09T09:09:30.843Z,20.94
2023-10-09T09:10:30.862Z,20.94
2023-10-09T09:11:30.885Z,20.94
2023-10-09T09:12:31.895Z,20.96
2023-10-09T09:13:31.026Z,20.94
2023-10-09T09:14:30.866Z,20.93
2023-10-09T09:15:31.421Z,20.94
2023-10-09T09:16:31.181Z,20.93
2023-10-09T09:17:31.495Z,20.93
2023-10-09T09:18:30.974Z,20.91
2023-10-09T09:19:31.225Z,20.96
2023-10-09T09:21:31.351Z,20.93
2023-10-09T09:22:31.027Z,20.93
2023-10-09T09:23:31.059Z,20.91
2023-10-09T09:24:31.266Z,20.93
2023-10-09T09:25:31.081Z,20.91
2023-10-09T09:26:31.177Z,20.91
2023-10-09T09:27:31.081Z,20.93
2023-10-09T09:28:31.929Z,20.94
2023-10-09T09:29:31.213Z,20.96
2023-10-09T09:30:31.102Z,20.97
2023-10-09T09:31:31.046Z,20.94
2023-10-09T09:32:31.123Z,20.94
2023-10-09T09:33:31.225Z,20.94
2023-10-09T09:34:31.105Z,20.91
2023-10-09T09:35:31.302Z,20.91
2023-10-09T09:36:31.663Z,20.90
2023-10-09T09:37:31.390Z,20.87
2023-10-09T09:38:31.962Z,20.87
2023-10-09T09:39:41.967Z,20.88
2023-10-09T09:40:34.304Z,20.88
2023-10-09T09:41:34.155Z,20.93
2023-10-09T09:42:31.278Z,20.96
2023-10-09T09:43:31.234Z,21.00
2023-10-09T09:44:31.295Z,21.03
2023-10-09T09:45:31.388Z,21.03
2023-10-09T09:46:31.398Z,21.03
2023-10-09T09:47:31.736Z,21.05
2023-10-09T09:48:31.558Z,21.08
2023-10-09T09:49:31.276Z,21.12
2023-10-09T09:50:31.251Z,21.15
2023-10-09T09:51:31.277Z,21.18
2023-10-09T09:52:31.386Z,21.21
2023-10-09T09:53:31.345Z,21.22
2023-10-09T09:54:31.384Z,21.19
2023-10-09T09:55:31.386Z,21.21
2023-10-09T09:56:31.872Z,21.22
2023-10-09T09:57:31.364Z,21.24
2023-10-09T09:58:31.646Z,21.28
2023-10-09T09:59:31.499Z,21.34
2023-10-09T10:00:31.514Z,21.38
2023-10-09T10:01:32.052Z,21.38
2023-10-09T10:02:31.583Z,21.42
2023-10-09T10:03:31.773Z,21.40
2023-10-09T10:04:32.054Z,21.43
2023-10-09T10:05:31.561Z,21.45
2023-10-09T10:06:31.666Z,21.49
2023-10-09T10:07:31.582Z,21.53
2023-10-09T10:08:31.549Z,21.59
2023-10-09T10:09:31.578Z,21.67
2023-10-09T10:10:31.608Z,21.73
2023-10-09T10:11:31.597Z,21.77
2023-10-09T10:12:31.591Z,21.83
2023-10-09T10:13:32.160Z,21.89
2023-10-09T10:14:31.648Z,21.90
2023-10-09T10:15:32.442Z,21.91
2023-10-09T10:16:31.691Z,21.89
2023-10-09T10:17:31.743Z,21.85
2023-10-09T10:18:31.676Z,21.83
2023-10-09T10:19:31.988Z,21.83
2023-10-09T10:21:31.922Z,21.91
2023-10-09T10:22:32.265Z,21.94
2023-10-09T10:23:31.756Z,21.96
2023-10-09T10:24:31.794Z,21.98
2023-10-09T10:25:31.779Z,21.98
2023-10-09T10:26:31.868Z,21.96
2023-10-09T10:27:31.759Z,21.99
2023-10-09T10:28:32.556Z,21.96
2023-10-09T10:29:31.817Z,21.93
2023-10-09T10:30:31.847Z,21.91
2023-10-09T10:31:31.817Z,21.93
2023-10-09T10:32:31.800Z,21.96
2023-10-09T10:33:31.816Z,21.98
2023-10-09T10:34:31.917Z,22.02
2023-10-09T10:35:31.851Z,22.04
2023-10-09T10:36:31.913Z,22.05
2023-10-09T10:37:31.906Z,22.05
2023-10-09T10:38:31.856Z,22.04
2023-10-09T10:39:31.904Z,22.04
2023-10-09T10:40:31.906Z,22.02
2023-10-09T10:41:31.891Z,22.04
2023-10-09T10:42:31.920Z,22.02
2023-10-09T10:43:32.345Z,21.98
2023-10-09T10:44:32.651Z,21.94
2023-10-09T10:45:31.969Z,21.93
2023-10-09T10:46:32.036Z,21.90
2023-10-09T10:47:32.067Z,21.83
2023-10-09T10:48:31.989Z,21.79
2023-10-09T10:49:32.120Z,21.75
2023-10-09T10:50:32.065Z,21.74
2023-10-09T10:51:32.056Z,21.73
2023-10-09T10:52:32.136Z,21.71
2023-10-09T10:53:32.197Z,21.71
2023-10-09T10:54:32.068Z,21.67
2023-10-09T10:55:35.362Z,21.64
2023-10-09T10:57:32.104Z,21.66
2023-10-09T10:58:32.207Z,21.70
2023-10-09T10:59:32.422Z,21.74
2023-10-09T11:01:32.580Z,21.77
2023-10-09T11:02:32.132Z,21.79
2023-10-09T11:03:32.371Z,21.83
2023-10-09T11:04:32.330Z,21.85
2023-10-09T11:05:32.233Z,21.86
2023-10-09T11:07:32.242Z,21.83
2023-10-09T11:09:46.750Z,21.85
2023-10-09T11:10:32.522Z,21.83
2023-10-09T11:11:32.214Z,21.82
2023-10-09T11:12:32.282Z,21.79
2023-10-09T11:13:32.367Z,21.75
2023-10-09T11:14:32.208Z,21.74
2023-10-09T11:15:32.212Z,21.74
2023-10-09T11:16:32.363Z,21.75
2023-10-09T11:17:32.302Z,21.79
2023-10-09T11:18:32.328Z,21.81
2023-10-09T11:19:32.245Z,21.81
2023-10-09T11:20:32.236Z,21.83
2023-10-09T11:21:32.880Z,21.85
2023-10-09T11:22:32.418Z,21.86
2023-10-09T11:23:32.277Z,21.89
2023-10-09T11:24:32.592Z,21.93
2023-10-09T11:26:32.285Z,22.04
2023-10-09T11:27:32.330Z,22.04
2023-10-09T11:28:32.437Z,22.04
2023-10-09T11:29:32.350Z,21.99
2023-10-09T11:30:32.455Z,21.98
2023-10-09T11:31:32.554Z,21.98
2023-10-09T11:32:32.369Z,21.99
2023-10-09T11:33:32.351Z,22.02
2023-10-09T11:34:32.403Z,22.02
2023-10-09T11:35:32.380Z,22.04
2023-10-09T11:36:32.476Z,22.04
2023-10-09T11:37:32.783Z,22.02
2023-10-09T11:38:32.454Z,21.98
2023-10-09T11:39:32.563Z,21.94
2023-10-09T11:40:32.511Z,21.91
2023-10-09T11:41:32.497Z,21.91
2023-10-09T11:42:32.490Z,21.93
2023-10-09T11:43:32.537Z,21.93
2023-10-09T11:44:32.657Z,21.94
2023-10-09T11:45:32.879Z,21.99
2023-10-09T11:48:32.827Z,22.04
2023-10-09T11:49:32.561Z,22.08
2023-10-09T11:50:33.627Z,22.11
2023-10-09T11:51:32.594Z,22.15
2023-10-09T11:52:32.704Z,22.20
2023-10-09T11:54:32.606Z,22.21
2023-10-09T11:55:32.643Z,22.21
2023-10-09T11:56:32.599Z,22.21
2023-10-09T11:57:32.635Z,22.20
2023-10-09T11:58:32.610Z,22.20
2023-10-09T11:59:32.752Z,22.23
2023-10-09T12:00:32.749Z,22.27
2023-10-09T12:01:32.781Z,22.30
2023-10-09T12:02:32.890Z,22.30
2023-10-09T12:03:32.845Z,22.31
2023-10-09T12:04:33.145Z,22.36
2023-10-09T12:05:32.737Z,22.38
2023-10-09T12:06:32.975Z,22.41
2023-10-09T12:07:32.849Z,22.41
2023-10-09T12:08:32.784Z,22.39
2023-10-09T12:09:32.801Z,22.36
2023-10-09T12:10:32.739Z,22.33
2023-10-09T12:11:32.837Z,22.30
2023-10-09T12:12:32.788Z,22.27
2023-10-09T12:13:32.961Z,22.26
2023-10-09T12:14:32.787Z,22.26
2023-10-09T12:15:32.867Z,22.24
2023-10-09T12:16:32.886Z,22.21
2023-10-09T12:17:33.424Z,22.20
2023-10-09T12:18:33.340Z,22.21
2023-10-09T12:19:32.867Z,22.23
2023-10-09T12:20:33.043Z,22.24
2023-10-09T12:21:32.894Z,22.27
2023-10-09T12:22:33.032Z,22.30
2023-10-09T12:23:32.911Z,22.31
2023-10-09T12:24:32.903Z,22.30
2023-10-09T12:25:33.093Z,22.27
2023-10-09T12:26:32.911Z,22.27
2023-10-09T12:27:32.934Z,22.26
2023-10-09T12:29:32.931Z,22.27
2023-10-09T12:31:33.565Z,22.27
2023-10-09T12:32:32.968Z,22.31
2023-10-09T12:33:35.195Z,22.35
2023-10-09T12:35:34.672Z,22.38
2023-10-09T12:36:33.004Z,22.39
2023-10-09T12:37:32.994Z,22.41
2023-10-09T12:38:33.180Z,22.44
2023-10-09T12:39:32.973Z,22.45
2023-10-09T12:40:33.030Z,22.49
2023-10-09T12:41:32.988Z,22.51
2023-10-09T12:42:33.450Z,22.57
2023-10-09T12:43:33.016Z,22.59
2023-10-09T12:44:33.928Z,22.61
2023-10-09T12:45:33.061Z,22.59
2023-10-09T12:46:33.111Z,22.57
2023-10-09T12:47:33.212Z,22.56
2023-10-09T12:48:33.091Z,22.52
2023-10-09T12:49:33.115Z,22.54
2023-10-09T12:50:33.085Z,22.56
2023-10-09T12:51:33.204Z,22.52
2023-10-09T12:52:33.127Z,22.51
2023-10-09T12:54:33.186Z,22.54
2023-10-09T12:55:33.397Z,22.63
2023-10-09T12:56:33.191Z,22.70
2023-10-09T12:57:33.192Z,22.78
2023-10-09T12:58:33.162Z,22.81
2023-10-09T12:59:33.212Z,22.81
2023-10-09T13:00:33.173Z,22.84
2023-10-09T13:02:33.343Z,22.94
2023-10-09T13:03:33.508Z,22.97
2023-10-09T13:05:33.293Z,23.03
2023-10-09T13:06:33.284Z,23.06
2023-10-09T13:07:33.376Z,23.11
2023-10-09T13:08:33.322Z,23.12
2023-10-09T13:09:33.397Z,23.14
2023-10-09T13:10:33.415Z,23.15
2023-10-09T13:11:33.396Z,23.12
2023-10-09T13:12:33.418Z,23.06
2023-10-09T13:13:33.459Z,22.99
2023-10-09T13:16:59.661Z,22.89
2023-10-09T13:17:59.855Z,22.91
2023-10-09T13:19:00.016Z,22.97
2023-10-09T13:19:59.494Z,23.03
2023-10-09T13:20:59.499Z,23.07
2023-10-09T13:21:59.492Z,23.07
2023-10-09T13:23:59.448Z,23.00
2023-10-09T13:24:59.542Z,22.94
2023-10-09T13:25:59.677Z,22.91
2023-10-09T13:26:59.854Z,22.91
2023-10-09T13:27:59.629Z,22.88
2023-10-09T13:28:59.695Z,22.91
2023-10-09T13:29:59.546Z,22.93
2023-10-09T13:31:59.827Z,22.99
2023-10-09T13:32:59.647Z,23.01
2023-10-09T13:33:59.666Z,23.03
2023-10-09T13:35:59.686Z,23.04
2023-10-09T13:36:59.728Z,23.04